Terminal Aerodrome Forecast
Issued by NWS Dallas/Fort Worth, TX

Home | Current Version | Previous Version | Text Only | Print | Product List | Glossary On
Versions: 1 2 3 4 5 6 7 8 9 10 11 12 13 14 15 16 17 18 19 20 21 22 23 24 25 26 27 28 29 30 31 32 33
000
FTUS44 KFWD 220535 CCA
TAFDFW
TAF COR
KDFW 220535Z 2206/2312 10006KT P6SM FEW025 OVC035
     FM220700 09005KT P6SM OVC015
     FM220900 08006KT 5SM BR OVC009
     FM221100 08006KT 6SM BR VCSH OVC009
     FM221600 10008KT P6SM OVC015
     FM222000 13009KT P6SM BKN025=

USA.gov is the U.S. government's official web portal to all federal, state and local government web resources and services.